메인 페이지
METAR-TAF:

METAR-TAF

공항 :

마르딘, 터키

위도: 37-13-58N, 경도: 40-38-26E, 고도: 527m

현재 날씨관측

예보는 1 시간 8분 전, 07:50시(UTC)에 발표되었습니다.
동남동8kt
온도 10°C
습도 82%
기압 1019 hPa
시정 10km 이상
고도 3000ft 상공 구름 보통
고도 10000ft 상공 구름 많음

METAR: LTCR 090750Z 12008KT 9999 SCT030 BKN100 10/07 Q1019

시각: 11:58 (08:58 UTC)

예보

예보는 1 시간 18분 전, 07:40시(UTC)에 발표되었습니다.
예보 대상 시간: 09일 09시부터 09일 18시까지 (UTC)
12kt
시정: 6000m
고도 1000ft 상공 구름 조금
고도 4000ft 상공 구름 많음
고도 9000ft 상공 흐림
약한비

TAF: LTCR 090740Z 0909/0918 09012KT 6000 -RA FEW010 BKN040 OVC090

4,000개 이상의 공항 관측 자료 및 예보 (METAR 및 TAF 보고).

지도상에서 검색 가능한 기상관측소가 노란 점과 빨간 점으로 표시되어 있습니다.

기상관측소 명을 보려면 표시 위로 마우스를 이동하세요.

날씨 관측과 예보를 보려면 클릭하세요.

지도 변경 : 확대하려면 엑스 표시가 있는 녹색 버튼, 축소하려면 빼기 표시가 있는 녹색 버튼, 다음 페이지의 지도를 보려면 녹색 화살표를 클릭하세요.


METAR-TAF: